createdAt,value
2022-08-24T00:01:28.431Z,55.88
2022-08-24T00:03:57.804Z,55.62
2022-08-24T00:06:28.754Z,55.82
2022-08-24T00:08:58.445Z,56.19
2022-08-24T00:11:26.903Z,55.70
2022-08-24T00:13:54.854Z,56.29
2022-08-24T00:16:23.220Z,57.17
2022-08-24T00:18:50.984Z,56.86
2022-08-24T00:21:19.419Z,56.39
2022-08-24T00:23:49.703Z,56.51
2022-08-24T00:26:28.444Z,56.64
2022-08-24T00:28:58.362Z,57.30
2022-08-24T00:31:26.695Z,57.79
2022-08-24T00:33:56.519Z,57.35
2022-08-24T00:36:24.965Z,57.95
2022-08-24T00:38:53.757Z,57.44
2022-08-24T00:41:22.710Z,57.98
2022-08-24T00:43:59.851Z,58.27
2022-08-24T00:46:43.678Z,59.91
2022-08-24T00:49:21.788Z,60.14
2022-08-24T00:52:12.678Z,59.77
2022-08-24T00:54:48.016Z,59.94
2022-08-24T00:57:22.444Z,60.03
2022-08-24T00:59:55.492Z,59.77
2022-08-24T01:02:27.057Z,60.04
2022-08-24T01:04:59.791Z,60.42
2022-08-24T01:07:30.205Z,60.69
2022-08-24T01:10:05.412Z,60.36
2022-08-24T01:12:36.362Z,59.90
2022-08-24T01:15:06.903Z,60.40
2022-08-24T01:17:54.671Z,60.43
2022-08-24T01:20:26.336Z,61.48
2022-08-24T01:23:36.571Z,61.54
2022-08-24T01:26:06.802Z,60.98
2022-08-24T01:28:36.960Z,61.27
2022-08-24T01:31:05.040Z,60.68
2022-08-24T01:33:33.360Z,61.19
2022-08-24T01:36:18.776Z,61.08
2022-08-24T01:38:48.938Z,60.72
2022-08-24T01:41:16.719Z,61.01
2022-08-24T01:43:44.721Z,61.01
2022-08-24T01:46:12.560Z,61.02
2022-08-24T01:48:40.584Z,61.35
2022-08-24T01:51:08.436Z,61.43
2022-08-24T01:53:37.016Z,61.25
2022-08-24T01:56:06.302Z,61.15
2022-08-24T01:58:35.278Z,61.60
2022-08-24T02:01:03.175Z,62.37
2022-08-24T02:03:31.256Z,61.92
2022-08-24T02:06:00.392Z,62.08
2022-08-24T02:08:29.285Z,62.30
2022-08-24T02:10:57.216Z,62.72
2022-08-24T02:13:27.227Z,62.71
2022-08-24T02:15:55.100Z,62.41
2022-08-24T02:18:22.929Z,61.97
2022-08-24T02:20:50.997Z,62.39
2022-08-24T02:23:19.883Z,62.37
2022-08-24T02:25:47.816Z,63.06
2022-08-24T02:28:15.669Z,62.73
2022-08-24T02:30:44.369Z,62.56
2022-08-24T02:33:13.072Z,62.40
2022-08-24T02:35:42.266Z,62.26
2022-08-24T02:38:10.694Z,62.91
2022-08-24T02:40:39.543Z,62.62
2022-08-24T02:43:07.753Z,62.88
2022-08-24T02:45:47.187Z,63.27
2022-08-24T02:48:18.598Z,62.81
2022-08-24T02:50:49.322Z,62.60
2022-08-24T02:53:19.972Z,63.42
2022-08-24T02:55:48.289Z,63.64
2022-08-24T02:58:18.513Z,63.14
2022-08-24T03:00:48.962Z,62.52
2022-08-24T03:03:20.209Z,63.22
2022-08-24T03:05:48.101Z,63.55
2022-08-24T03:08:15.949Z,63.75
2022-08-24T03:10:45.082Z,63.04
2022-08-24T03:13:13.904Z,62.67
2022-08-24T03:15:41.878Z,63.05
2022-08-24T03:18:09.758Z,64.09
2022-08-24T03:20:38.171Z,63.66
2022-08-24T03:23:06.357Z,63.74
2022-08-24T03:25:34.085Z,63.62
2022-08-24T03:28:02.847Z,63.08
2022-08-24T03:30:36.616Z,63.52
2022-08-24T03:33:05.552Z,63.71
2022-08-24T03:35:34.184Z,63.21
2022-08-24T03:38:02.166Z,63.49
2022-08-24T03:40:33.113Z,63.47
2022-08-24T03:43:02.225Z,63.79
2022-08-24T03:45:30.498Z,64.54
2022-08-24T03:47:58.911Z,64.64
2022-08-24T03:50:27.923Z,64.79
2022-08-24T03:52:55.749Z,65.34
2022-08-24T03:55:23.638Z,64.70
2022-08-24T03:57:51.803Z,65.30
2022-08-24T04:00:20.024Z,66.23
2022-08-24T04:02:57.849Z,66.17
2022-08-24T04:05:27.415Z,65.87
2022-08-24T04:07:55.789Z,65.37
2022-08-24T04:10:24.630Z,65.50
2022-08-24T04:12:54.925Z,64.88
2022-08-24T04:15:25.224Z,64.81
2022-08-24T04:17:53.231Z,65.27
2022-08-24T04:20:21.129Z,65.24
2022-08-24T04:22:53.574Z,65.91
2022-08-24T04:25:25.217Z,65.57
2022-08-24T04:27:53.421Z,65.29
2022-08-24T04:30:23.335Z,63.56
2022-08-24T04:33:07.015Z,63.10
2022-08-24T04:35:40.875Z,62.57
2022-08-24T04:38:09.901Z,62.14
2022-08-24T04:40:43.260Z,61.88
2022-08-24T04:43:19.776Z,61.25
2022-08-24T04:45:48.991Z,60.74
2022-08-24T04:48:17.878Z,61.05
2022-08-24T04:50:45.795Z,60.01
2022-08-24T04:53:14.485Z,60.02
2022-08-24T04:55:49.715Z,59.63
2022-08-24T04:58:18.612Z,59.01
2022-08-24T05:00:46.943Z,58.66
2022-08-24T05:03:15.254Z,58.07
2022-08-24T05:05:46.383Z,57.87
2022-08-24T05:08:14.775Z,57.89
2022-08-24T05:10:46.021Z,57.32
2022-08-24T05:13:15.472Z,57.65
2022-08-24T05:15:48.232Z,56.88
2022-08-24T05:18:17.587Z,56.92
2022-08-24T05:20:47.538Z,55.77
2022-08-24T05:23:15.887Z,55.56
2022-08-24T05:25:43.662Z,55.05
2022-08-24T05:28:11.469Z,54.39
2022-08-24T05:30:42.479Z,53.72
2022-08-24T05:33:11.563Z,54.44
2022-08-24T05:35:43.712Z,54.34
2022-08-24T05:38:12.379Z,54.54
2022-08-24T05:40:41.401Z,54.02
2022-08-24T05:43:09.866Z,53.76
2022-08-24T05:45:41.030Z,53.35
2022-08-24T05:48:08.827Z,53.32
2022-08-24T05:50:59.776Z,54.00
2022-08-24T05:53:32.507Z,53.36
2022-08-24T05:56:13.439Z,53.21
2022-08-24T05:58:41.356Z,52.57
2022-08-24T06:01:36.646Z,52.86
2022-08-24T06:04:09.179Z,52.41
2022-08-24T06:06:38.545Z,52.19
2022-08-24T06:09:08.853Z,52.09
2022-08-24T06:11:43.758Z,51.67
2022-08-24T06:14:16.887Z,50.93
2022-08-24T06:16:52.959Z,51.11
2022-08-24T06:19:23.249Z,51.40
2022-08-24T06:21:54.852Z,51.17
2022-08-24T06:24:45.076Z,50.77
2022-08-24T06:27:23.489Z,49.59
2022-08-24T06:29:56.147Z,49.43
2022-08-24T06:32:44.228Z,48.78
2022-08-24T06:35:22.533Z,48.31
2022-08-24T06:37:50.439Z,48.28
2022-08-24T06:40:24.842Z,48.34
2022-08-24T06:42:52.955Z,48.47
2022-08-24T06:45:36.004Z,47.91
2022-08-24T06:48:04.277Z,47.39
2022-08-24T06:50:32.148Z,46.99
2022-08-24T06:53:16.743Z,47.94
2022-08-24T06:55:57.063Z,48.02
2022-08-24T06:58:28.945Z,47.79
2022-08-24T07:00:57.511Z,46.27
2022-08-24T07:03:26.868Z,46.28
2022-08-24T07:06:08.099Z,46.77
2022-08-24T07:08:42.430Z,46.29
2022-08-24T07:11:17.761Z,46.07
2022-08-24T07:13:47.854Z,46.12
2022-08-24T07:16:20.665Z,44.73
2022-08-24T07:18:52.955Z,45.11
2022-08-24T07:21:23.647Z,44.74
2022-08-24T07:23:58.561Z,44.77
2022-08-24T07:26:30.151Z,43.38
2022-08-24T07:29:06.941Z,43.59
2022-08-24T07:31:44.122Z,42.88
2022-08-24T07:34:27.305Z,43.85
2022-08-24T07:36:55.926Z,43.04
2022-08-24T07:39:24.368Z,42.94
2022-08-24T07:42:11.552Z,43.08
2022-08-24T07:44:40.511Z,42.04
2022-08-24T07:47:34.358Z,42.27
2022-08-24T07:49:57.919Z,42.07
2022-08-24T07:52:42.362Z,41.97
2022-08-24T07:55:23.816Z,42.15
2022-08-24T07:57:55.791Z,42.33
2022-08-24T08:00:57.816Z,42.13
2022-08-24T08:03:36.084Z,41.62
2022-08-24T08:06:13.796Z,41.63
2022-08-24T08:08:53.376Z,42.40
2022-08-24T08:11:31.362Z,41.73
2022-08-24T08:14:04.923Z,41.53
2022-08-24T08:16:43.056Z,41.77
2022-08-24T08:19:20.346Z,42.27
2022-08-24T08:22:18.496Z,41.40
2022-08-24T08:25:09.545Z,42.51
2022-08-24T08:27:40.585Z,43.00
2022-08-24T08:30:15.658Z,42.95
2022-08-24T08:32:48.097Z,42.00
2022-08-24T08:35:17.904Z,42.21
2022-08-24T08:37:54.316Z,41.70
2022-08-24T08:40:55.561Z,42.48
2022-08-24T08:43:43.324Z,42.24
2022-08-24T08:46:29.306Z,41.60
2022-08-24T08:49:35.717Z,41.77
2022-08-24T08:52:16.981Z,40.59
2022-08-24T08:55:06.193Z,40.55
2022-08-24T08:58:03.143Z,40.79
2022-08-24T09:01:01.874Z,41.46
2022-08-24T09:03:50.618Z,42.42
2022-08-24T09:07:14.601Z,41.00
2022-08-24T09:09:56.185Z,41.38
2022-08-24T09:12:46.669Z,41.85
2022-08-24T09:15:36.169Z,41.75
2022-08-24T09:18:16.543Z,41.35
2022-08-24T09:21:15.775Z,41.30
2022-08-24T09:24:11.415Z,41.20
2022-08-24T09:27:10.593Z,41.72
2022-08-24T09:29:38.720Z,41.33
2022-08-24T09:32:32.766Z,40.86
2022-08-24T09:35:05.430Z,41.57
2022-08-24T09:38:01.045Z,41.04
2022-08-24T09:41:06.152Z,40.77
2022-08-24T09:44:11.590Z,40.89
2022-08-24T09:46:59.456Z,40.67
2022-08-24T09:49:48.815Z,40.60
2022-08-24T09:52:43.240Z,41.05
2022-08-24T09:55:47.997Z,41.03
2022-08-24T09:58:38.575Z,40.53
2022-08-24T10:01:31.249Z,40.20
2022-08-24T10:04:21.396Z,40.72
2022-08-24T10:07:04.834Z,40.41
2022-08-24T10:09:58.689Z,39.72
2022-08-24T10:12:56.301Z,40.36
2022-08-24T10:15:50.340Z,39.61
2022-08-24T10:18:42.872Z,40.60
2022-08-24T10:21:39.401Z,40.32
2022-08-24T10:24:10.149Z,40.84
2022-08-24T10:27:09.633Z,39.69
2022-08-24T10:30:05.203Z,39.74
2022-08-24T10:32:52.087Z,39.53
2022-08-24T10:35:35.684Z,39.68
2022-08-24T10:38:50.548Z,39.60
2022-08-24T10:41:24.370Z,39.06
2022-08-24T10:44:38.747Z,38.51
2022-08-24T10:47:20.977Z,38.71
2022-08-24T10:50:07.328Z,38.54
2022-08-24T10:53:04.803Z,38.05
2022-08-24T10:55:37.358Z,38.48
2022-08-24T10:58:46.432Z,38.81
2022-08-24T11:01:26.870Z,38.47
2022-08-24T11:04:00.093Z,38.39
2022-08-24T11:06:43.207Z,38.10
2022-08-24T11:09:19.689Z,37.71
2022-08-24T11:11:50.384Z,37.99
2022-08-24T11:14:29.790Z,38.45
2022-08-24T11:17:19.286Z,37.72
2022-08-24T11:19:47.585Z,37.75
2022-08-24T11:23:00.295Z,38.39
2022-08-24T11:25:33.321Z,38.32
2022-08-24T11:28:33.856Z,37.77
2022-08-24T11:31:03.702Z,37.58
2022-08-24T11:33:35.255Z,38.67
2022-08-24T11:36:14.241Z,37.80
2022-08-24T11:38:49.756Z,37.50
2022-08-24T11:41:20.579Z,37.88
2022-08-24T11:44:34.344Z,37.23
2022-08-24T11:47:19.672Z,37.37
2022-08-24T11:49:54.805Z,37.06
2022-08-24T11:52:39.888Z,37.90
2022-08-24T11:55:30.705Z,37.61
2022-08-24T11:58:32.449Z,37.20
2022-08-24T12:01:19.708Z,36.29
2022-08-24T12:04:00.823Z,35.64
2022-08-24T12:06:55.657Z,35.17
2022-08-24T12:09:43.994Z,35.90
2022-08-24T12:12:36.795Z,35.42
2022-08-24T12:15:37.458Z,35.21
2022-08-24T12:18:23.525Z,35.36
2022-08-24T12:20:55.033Z,35.47
2022-08-24T12:23:44.123Z,35.50
2022-08-24T12:26:50.564Z,34.32
2022-08-24T12:29:37.770Z,34.71
2022-08-24T12:32:26.029Z,35.87
2022-08-24T12:35:01.682Z,35.85
2022-08-24T12:37:47.445Z,36.71
2022-08-24T12:40:41.980Z,34.92
2022-08-24T12:43:19.079Z,33.04
2022-08-24T12:45:47.674Z,33.10
2022-08-24T12:48:26.430Z,34.06
2022-08-24T12:51:30.028Z,35.25
2022-08-24T12:54:33.298Z,35.71
2022-08-24T12:57:26.540Z,35.36
2022-08-24T12:59:58.296Z,35.05
2022-08-24T13:02:38.028Z,34.84
2022-08-24T13:05:21.109Z,34.71
2022-08-24T13:07:53.294Z,34.57
2022-08-24T13:10:24.873Z,34.57
2022-08-24T13:13:11.347Z,34.82
2022-08-24T13:15:39.520Z,34.67
2022-08-24T13:18:07.713Z,34.03
2022-08-24T13:20:38.899Z,33.96
2022-08-24T13:23:31.222Z,34.02
2022-08-24T13:26:28.030Z,33.92
2022-08-24T13:28:58.932Z,34.51
2022-08-24T13:31:38.820Z,33.95
2022-08-24T13:34:06.834Z,34.42
2022-08-24T13:36:46.034Z,33.19
2022-08-24T13:39:42.127Z,33.71
2022-08-24T13:42:22.082Z,34.15
2022-08-24T13:45:09.134Z,33.35
2022-08-24T13:47:57.133Z,34.07
2022-08-24T13:50:32.860Z,34.09
2022-08-24T13:53:22.455Z,33.89
2022-08-24T13:56:12.023Z,33.08
2022-08-24T13:59:01.521Z,33.04
2022-08-24T14:01:39.006Z,33.93
2022-08-24T14:04:25.767Z,34.11
2022-08-24T14:07:12.714Z,34.69
2022-08-24T14:10:05.515Z,34.70
2022-08-24T14:12:33.454Z,34.36
2022-08-24T14:15:13.244Z,33.04
2022-08-24T14:18:09.656Z,33.85
2022-08-24T14:20:53.878Z,32.75
2022-08-24T14:23:27.872Z,33.81
2022-08-24T14:26:41.023Z,33.43
2022-08-24T14:29:20.855Z,32.95
2022-08-24T14:31:58.637Z,33.63
2022-08-24T14:34:54.723Z,33.76
2022-08-24T14:37:44.731Z,32.76
2022-08-24T14:40:25.012Z,33.23
2022-08-24T14:43:07.060Z,33.45
2022-08-24T14:46:02.134Z,32.55
2022-08-24T14:48:46.431Z,32.46
2022-08-24T14:51:32.993Z,34.00
2022-08-24T14:54:28.665Z,33.47
2022-08-24T14:57:32.950Z,33.59
2022-08-24T15:00:20.839Z,35.04
2022-08-24T15:02:51.527Z,33.38
2022-08-24T15:05:31.658Z,34.03
2022-08-24T15:08:01.297Z,32.90
2022-08-24T15:11:07.634Z,34.52
2022-08-24T15:13:56.667Z,33.25
2022-08-24T15:16:43.506Z,34.16
2022-08-24T15:19:36.296Z,34.92
2022-08-24T15:22:13.848Z,34.94
2022-08-24T15:24:52.768Z,35.24
2022-08-24T15:27:37.609Z,33.45
2022-08-24T15:31:19.007Z,35.58
2022-08-24T15:33:59.319Z,34.13
2022-08-24T15:36:30.239Z,36.48
2022-08-24T15:38:58.087Z,36.46
2022-08-24T15:41:39.281Z,36.18
2022-08-24T15:44:23.537Z,36.15
2022-08-24T15:46:59.513Z,35.77
2022-08-24T15:49:39.689Z,36.39
2022-08-24T15:52:28.508Z,36.11
2022-08-24T15:55:03.693Z,36.59
2022-08-24T15:57:41.420Z,36.54
2022-08-24T16:00:40.520Z,38.05
2022-08-24T16:03:42.949Z,36.74
2022-08-24T16:06:38.399Z,36.71
2022-08-24T16:09:16.332Z,36.05
2022-08-24T16:12:05.093Z,36.28
2022-08-24T16:14:49.156Z,37.49
2022-08-24T16:17:42.132Z,37.04
2022-08-24T16:20:25.669Z,37.64
2022-08-24T16:23:01.457Z,37.40
2022-08-24T16:25:43.711Z,36.93
2022-08-24T16:28:22.454Z,37.15
2022-08-24T16:30:54.813Z,37.18
2022-08-24T16:33:32.334Z,36.82
2022-08-24T16:36:20.565Z,37.26
2022-08-24T16:38:51.156Z,37.55
2022-08-24T16:41:23.050Z,37.63
2022-08-24T16:43:51.686Z,37.25
2022-08-24T16:46:23.186Z,38.30
2022-08-24T16:48:54.368Z,36.94
2022-08-24T16:51:25.353Z,36.69
2022-08-24T16:53:53.998Z,37.76
2022-08-24T16:56:23.374Z,37.16
2022-08-24T16:58:51.717Z,37.00
2022-08-24T17:01:20.263Z,36.96
2022-08-24T17:03:48.590Z,38.30
2022-08-24T17:06:19.016Z,38.04
2022-08-24T17:08:48.152Z,38.36
2022-08-24T17:11:19.604Z,37.02
2022-08-24T17:13:50.221Z,37.56
2022-08-24T17:16:21.658Z,39.50
2022-08-24T17:18:49.836Z,39.24
2022-08-24T17:21:17.723Z,39.57
2022-08-24T17:23:47.701Z,38.78
2022-08-24T17:26:20.553Z,37.81
2022-08-24T17:28:52.718Z,38.17
2022-08-24T17:31:20.771Z,37.91
2022-08-24T17:33:48.637Z,37.69
2022-08-24T17:36:20.414Z,39.01
2022-08-24T17:38:55.723Z,38.56
2022-08-24T17:41:25.951Z,38.61
2022-08-24T17:43:54.948Z,38.76
2022-08-24T17:46:23.638Z,38.43
2022-08-24T17:48:56.344Z,38.72
2022-08-24T17:51:24.380Z,38.47
2022-08-24T17:53:52.528Z,38.09
2022-08-24T17:56:20.935Z,39.05
2022-08-24T17:59:06.924Z,38.86
2022-08-24T18:01:35.316Z,39.57
2022-08-24T18:04:03.448Z,39.81
2022-08-24T18:06:31.712Z,39.03
2022-08-24T18:09:05.661Z,39.35
2022-08-24T18:11:34.337Z,39.18
2022-08-24T18:14:02.763Z,38.93
2022-08-24T18:16:30.757Z,40.32
2022-08-24T18:19:02.074Z,39.31
2022-08-24T18:21:29.972Z,40.82
2022-08-24T18:23:58.526Z,40.43
2022-08-24T18:26:28.905Z,40.58
2022-08-24T18:29:01.968Z,39.75
2022-08-24T18:31:31.158Z,40.08
2022-08-24T18:33:59.115Z,40.18
2022-08-24T18:36:27.013Z,39.82
2022-08-24T18:38:58.721Z,40.20
2022-08-24T18:41:32.821Z,39.50
2022-08-24T18:44:05.413Z,40.26
2022-08-24T18:46:43.754Z,40.06
2022-08-24T18:49:30.906Z,38.55
2022-08-24T18:52:05.805Z,39.75
2022-08-24T18:54:46.979Z,39.80
2022-08-24T18:57:21.736Z,40.69
2022-08-24T18:59:54.123Z,41.04
2022-08-24T19:02:31.216Z,41.55
2022-08-24T19:05:09.659Z,41.60
2022-08-24T19:07:45.430Z,42.08
2022-08-24T19:10:22.191Z,41.52
2022-08-24T19:13:01.738Z,42.76
2022-08-24T19:15:39.622Z,42.85
2022-08-24T19:18:12.480Z,42.31
2022-08-24T19:20:48.334Z,42.20
2022-08-24T19:23:28.178Z,41.82
2022-08-24T19:26:00.491Z,42.92
2022-08-24T19:28:35.467Z,43.13
2022-08-24T19:31:15.210Z,44.00
2022-08-24T19:33:49.910Z,43.83
2022-08-24T19:36:22.948Z,43.94
2022-08-24T19:38:52.821Z,43.94
2022-08-24T19:41:22.596Z,44.85
2022-08-24T19:44:23.508Z,44.74
2022-08-24T19:46:55.880Z,45.42
2022-08-24T19:49:24.291Z,45.16
2022-08-24T19:51:52.710Z,45.30
2022-08-24T19:54:21.301Z,45.37
2022-08-24T19:56:53.256Z,44.52
2022-08-24T19:59:27.332Z,45.44
2022-08-24T20:01:55.216Z,45.74
2022-08-24T20:04:23.168Z,45.37
2022-08-24T20:06:51.065Z,45.97
2022-08-24T20:09:23.059Z,45.96
2022-08-24T20:11:51.721Z,46.53
2022-08-24T20:14:20.425Z,46.44
2022-08-24T20:16:49.095Z,46.42
2022-08-24T20:19:17.131Z,46.90
2022-08-24T20:21:45.147Z,46.37
2022-08-24T20:24:12.973Z,46.40
2022-08-24T20:26:43.646Z,47.36
2022-08-24T20:29:12.574Z,47.94
2022-08-24T20:31:42.484Z,47.75
2022-08-24T20:34:10.346Z,47.79
2022-08-24T20:36:50.041Z,47.81
2022-08-24T20:39:23.018Z,48.09
2022-08-24T20:41:53.015Z,48.21
2022-08-24T20:44:21.911Z,48.04
2022-08-24T20:46:51.002Z,47.63
2022-08-24T20:49:24.135Z,48.02
2022-08-24T20:51:51.942Z,49.70
2022-08-24T20:54:19.694Z,49.32
2022-08-24T20:56:49.116Z,49.03
2022-08-24T20:59:19.738Z,49.03
2022-08-24T21:01:49.202Z,49.72
2022-08-24T21:04:17.068Z,48.40
2022-08-24T21:06:45.429Z,48.58
2022-08-24T21:09:14.538Z,49.82
2022-08-24T21:11:43.763Z,49.06
2022-08-24T21:14:11.500Z,48.60
2022-08-24T21:16:41.978Z,48.88
2022-08-24T21:19:11.940Z,49.39
2022-08-24T21:21:42.405Z,49.13
2022-08-24T21:24:11.047Z,49.09
2022-08-24T21:26:39.766Z,50.06
2022-08-24T21:29:11.140Z,49.64
2022-08-24T21:32:04.620Z,49.50
2022-08-24T21:34:43.123Z,49.18
2022-08-24T21:37:13.554Z,49.23
2022-08-24T21:39:42.691Z,49.76
2022-08-24T21:42:10.874Z,50.43
2022-08-24T21:44:39.335Z,51.13
2022-08-24T21:47:07.837Z,52.03
2022-08-24T21:49:35.882Z,52.17
2022-08-24T21:52:03.999Z,52.98
2022-08-24T21:54:31.923Z,54.32
2022-08-24T21:56:59.765Z,52.83
2022-08-24T21:59:27.804Z,53.73
2022-08-24T22:01:55.683Z,53.66
2022-08-24T22:04:32.665Z,54.00
2022-08-24T22:07:02.177Z,54.49
2022-08-24T22:09:30.150Z,54.18
2022-08-24T22:12:00.086Z,54.51
2022-08-24T22:14:27.892Z,54.15
2022-08-24T22:16:55.664Z,54.85
2022-08-24T22:19:23.620Z,55.05
2022-08-24T22:21:51.459Z,55.67
2022-08-24T22:24:19.275Z,55.91
2022-08-24T22:26:47.189Z,55.62
2022-08-24T22:29:15.097Z,55.58
2022-08-24T22:31:43.799Z,55.13
2022-08-24T22:34:19.666Z,55.34
2022-08-24T22:36:49.569Z,56.19
2022-08-24T22:39:17.729Z,55.67
2022-08-24T22:41:45.560Z,56.00
2022-08-24T22:44:19.462Z,56.18
2022-08-24T22:46:57.632Z,56.12
2022-08-24T22:49:32.514Z,56.41
2022-08-24T22:52:00.322Z,56.91
2022-08-24T22:54:28.549Z,57.02
2022-08-24T22:56:58.000Z,56.77
2022-08-24T22:59:35.814Z,56.19
2022-08-24T23:02:09.677Z,56.69
2022-08-24T23:04:38.585Z,56.95
2022-08-24T23:07:08.113Z,57.37
2022-08-24T23:09:44.160Z,57.04
2022-08-24T23:12:19.908Z,57.41
2022-08-24T23:14:50.517Z,57.75
2022-08-24T23:17:19.638Z,57.15
2022-08-24T23:20:00.126Z,57.36
2022-08-24T23:22:40.596Z,57.29
2022-08-24T23:25:11.944Z,57.34
2022-08-24T23:27:40.966Z,57.62
2022-08-24T23:30:12.808Z,57.95
2022-08-24T23:32:41.021Z,58.05
2022-08-24T23:35:09.347Z,58.17
2022-08-24T23:37:37.156Z,58.09
2022-08-24T23:40:05.700Z,58.11
2022-08-24T23:42:33.461Z,57.95
2022-08-24T23:45:01.326Z,57.66
2022-08-24T23:47:29.140Z,58.21
2022-08-24T23:49:56.965Z,58.37
2022-08-24T23:52:26.254Z,58.47
2022-08-24T23:55:15.623Z,58.73
2022-08-24T23:57:45.395Z,58.36
